createdAt,value
2019-02-26T00:01:18.490Z,59.20
2019-02-26T00:05:23.797Z,59.10
2019-02-26T00:09:30.541Z,59.20
2019-02-26T00:13:36.610Z,58.30
2019-02-26T00:17:45.307Z,57.80
2019-02-26T00:21:49.731Z,58.50
2019-02-26T00:25:54.269Z,59.40
2019-02-26T00:29:58.661Z,59.40
2019-02-26T00:34:03.361Z,59.80
2019-02-26T00:38:08.972Z,60.10
2019-02-26T00:42:13.912Z,60.50
2019-02-26T00:46:19.275Z,61.20
2019-02-26T00:50:24.243Z,60.30
2019-02-26T00:54:31.972Z,59.10
2019-02-26T00:58:38.944Z,58.90
2019-02-26T01:02:42.654Z,59.60
2019-02-26T01:06:47.595Z,59.10
2019-02-26T01:10:57.148Z,59.10
2019-02-26T01:15:09.471Z,59.40
2019-02-26T01:19:17.517Z,59.80
2019-02-26T01:23:24.253Z,60.20
2019-02-26T01:27:31.191Z,59.80
2019-02-26T01:31:41.138Z,60.60
2019-02-26T01:36:07.818Z,61.10
2019-02-26T01:40:13.769Z,61.80
2019-02-26T01:44:28.109Z,62.60
2019-02-26T01:48:34.870Z,62.10
2019-02-26T01:52:40.359Z,61.80
2019-02-26T01:56:45.531Z,62.00
2019-02-26T02:00:50.071Z,62.50
2019-02-26T02:04:55.136Z,62.50
2019-02-26T02:09:02.445Z,62.10
2019-02-26T02:13:09.257Z,62.40
2019-02-26T02:17:14.966Z,62.80
2019-02-26T02:21:19.570Z,63.20
2019-02-26T02:25:24.648Z,63.90
2019-02-26T02:29:31.731Z,64.60
2019-02-26T02:33:37.669Z,65.60
2019-02-26T02:37:42.442Z,65.70
2019-02-26T02:41:48.762Z,66.10
2019-02-26T02:45:55.807Z,65.90
2019-02-26T02:49:59.345Z,65.90
2019-02-26T02:54:03.888Z,65.30
2019-02-26T02:58:08.672Z,65.40
2019-02-26T03:02:15.038Z,65.40
2019-02-26T03:06:20.042Z,66.40
2019-02-26T03:10:28.467Z,66.90
2019-02-26T03:14:33.814Z,67.20
2019-02-26T03:18:37.768Z,67.50
2019-02-26T03:22:45.924Z,68.10
2019-02-26T03:26:48.455Z,68.40
2019-02-26T03:30:52.920Z,68.40
2019-02-26T03:35:02.111Z,69.10
2019-02-26T03:39:05.075Z,69.60
2019-02-26T03:43:13.230Z,69.00
2019-02-26T03:47:18.870Z,69.20
2019-02-26T03:51:24.117Z,69.30
2019-02-26T03:55:31.723Z,69.90
2019-02-26T03:59:36.129Z,70.40
2019-02-26T04:03:42.473Z,70.10
2019-02-26T04:07:51.701Z,70.00
2019-02-26T04:11:55.431Z,70.10
2019-02-26T04:16:03.853Z,70.50
2019-02-26T04:20:07.000Z,70.40
2019-02-26T04:24:11.490Z,70.50
2019-02-26T04:28:30.691Z,70.90
2019-02-26T04:32:48.812Z,71.40
2019-02-26T04:37:39.133Z,71.30
2019-02-26T04:42:00.872Z,71.20
2019-02-26T04:46:54.027Z,71.60
2019-02-26T04:50:59.839Z,72.00
2019-02-26T04:55:05.795Z,72.20
2019-02-26T04:59:12.541Z,72.10
2019-02-26T05:03:20.093Z,72.20
2019-02-26T05:07:23.851Z,72.00
2019-02-26T05:11:32.404Z,72.30
2019-02-26T05:15:34.948Z,72.40
2019-02-26T05:19:42.419Z,72.20
2019-02-26T05:23:46.615Z,72.20
2019-02-26T05:27:52.540Z,72.30
2019-02-26T05:31:58.880Z,72.20
2019-02-26T05:36:04.063Z,72.50
2019-02-26T05:40:12.860Z,72.20
2019-02-26T05:44:15.689Z,72.90
2019-02-26T05:48:21.314Z,73.00
2019-02-26T05:52:27.229Z,74.20
2019-02-26T05:56:34.133Z,73.20
2019-02-26T06:00:39.372Z,73.70
2019-02-26T06:04:47.664Z,73.90
2019-02-26T06:08:55.301Z,75.20
2019-02-26T06:12:58.863Z,74.00
2019-02-26T06:17:03.319Z,74.30
2019-02-26T06:21:08.074Z,74.70
2019-02-26T06:25:18.616Z,74.30
2019-02-26T06:29:22.258Z,74.80
2019-02-26T06:33:31.860Z,74.70
2019-02-26T06:37:33.705Z,74.50
2019-02-26T06:41:41.790Z,75.30
2019-02-26T06:45:47.679Z,74.60
2019-02-26T06:49:52.687Z,74.50
2019-02-26T06:53:58.771Z,74.60
2019-02-26T06:58:23.771Z,74.10
2019-02-26T07:02:29.161Z,74.00
2019-02-26T07:06:34.911Z,73.50
2019-02-26T07:10:40.141Z,73.20
2019-02-26T07:14:46.446Z,73.20
2019-02-26T07:18:51.292Z,72.90
2019-02-26T07:22:56.037Z,72.70
2019-02-26T07:27:02.462Z,72.30
2019-02-26T07:31:08.113Z,71.40
2019-02-26T07:35:16.385Z,71.40
2019-02-26T07:39:20.920Z,71.40
2019-02-26T07:43:26.068Z,70.70
2019-02-26T07:47:31.453Z,69.70
2019-02-26T07:51:38.548Z,69.10
2019-02-26T07:55:44.023Z,67.70
2019-02-26T07:59:50.722Z,67.20
2019-02-26T08:03:55.380Z,66.60
2019-02-26T08:08:00.420Z,65.80
2019-02-26T08:12:07.189Z,66.10
2019-02-26T08:16:12.155Z,65.70
2019-02-26T08:20:16.866Z,65.20
2019-02-26T08:24:24.634Z,63.90
2019-02-26T08:28:29.228Z,63.70
2019-02-26T08:32:33.705Z,63.00
2019-02-26T08:36:38.475Z,62.50
2019-02-26T08:40:43.012Z,63.60
2019-02-26T08:44:48.645Z,63.50
2019-02-26T08:48:53.907Z,62.30
2019-02-26T08:53:00.813Z,62.40
2019-02-26T08:57:05.747Z,61.10
2019-02-26T09:01:10.143Z,59.00
2019-02-26T09:05:14.619Z,59.30
2019-02-26T09:09:21.002Z,58.30
2019-02-26T09:13:26.293Z,58.30
2019-02-26T09:17:32.472Z,57.80
2019-02-26T09:21:41.751Z,58.70
2019-02-26T09:25:48.578Z,59.80
2019-02-26T09:29:51.470Z,60.90
2019-02-26T09:33:56.336Z,60.70
2019-02-26T09:38:01.034Z,61.00
2019-02-26T09:42:06.608Z,61.80
2019-02-26T09:46:16.326Z,62.80
2019-02-26T09:50:22.568Z,63.10
2019-02-26T09:54:26.947Z,62.30
2019-02-26T09:58:32.550Z,61.20
2019-02-26T10:02:37.290Z,60.60
2019-02-26T10:06:43.019Z,60.60
2019-02-26T10:10:51.381Z,61.00
2019-02-26T10:14:59.609Z,60.60
2019-02-26T10:19:02.605Z,59.80
2019-02-26T10:23:07.511Z,59.00
2019-02-26T10:27:14.605Z,59.00
2019-02-26T10:31:23.945Z,58.50
2019-02-26T10:35:33.363Z,58.40
2019-02-26T10:39:32.416Z,57.40
2019-02-26T10:43:37.220Z,57.10
2019-02-26T10:47:41.967Z,58.40
2019-02-26T10:51:46.724Z,58.30
2019-02-26T10:55:51.489Z,57.50
2019-02-26T10:59:59.177Z,55.60
2019-02-26T11:04:04.280Z,55.60
2019-02-26T11:08:09.557Z,55.00
2019-02-26T11:12:14.440Z,54.60
2019-02-26T11:16:25.285Z,54.20
2019-02-26T11:20:30.032Z,54.70
2019-02-26T11:24:33.694Z,56.00
2019-02-26T11:28:40.545Z,56.00
2019-02-26T11:32:47.384Z,54.50
2019-02-26T11:36:58.487Z,55.20
2019-02-26T11:41:03.951Z,55.40
2019-02-26T11:45:12.586Z,55.80
2019-02-26T11:49:19.393Z,51.40
2019-02-26T11:53:25.096Z,49.50
2019-02-26T11:57:32.577Z,46.70
2019-02-26T12:01:39.011Z,46.30
2019-02-26T12:05:42.779Z,47.90
2019-02-26T12:09:47.366Z,50.50
2019-02-26T12:13:53.146Z,53.10
2019-02-26T12:17:58.897Z,53.80
2019-02-26T12:22:05.399Z,53.80
2019-02-26T12:26:11.339Z,54.20
2019-02-26T12:30:20.517Z,54.60
2019-02-26T12:34:24.652Z,55.50
2019-02-26T12:38:29.116Z,55.30
2019-02-26T12:42:33.640Z,56.00
2019-02-26T12:46:39.598Z,56.20
2019-02-26T12:50:44.540Z,56.20
2019-02-26T12:54:49.029Z,55.80
2019-02-26T12:58:54.542Z,55.20
2019-02-26T13:03:00.633Z,54.80
2019-02-26T13:07:06.697Z,54.20
2019-02-26T13:11:14.013Z,53.90
2019-02-26T13:15:19.363Z,55.40
2019-02-26T13:19:29.231Z,56.30
2019-02-26T13:23:31.174Z,56.40
2019-02-26T13:27:38.502Z,56.40
2019-02-26T13:31:50.775Z,57.10
2019-02-26T13:35:58.176Z,57.50
2019-02-26T13:39:58.131Z,57.10
2019-02-26T13:44:03.173Z,56.90
2019-02-26T13:48:07.571Z,57.00
2019-02-26T13:52:12.289Z,57.00
2019-02-26T13:56:16.781Z,57.60
2019-02-26T14:00:26.213Z,58.70
2019-02-26T14:04:31.510Z,59.20
2019-02-26T14:08:36.724Z,59.00
2019-02-26T14:12:41.729Z,59.20
2019-02-26T14:16:46.518Z,59.30
2019-02-26T14:20:51.361Z,59.90
2019-02-26T14:24:56.086Z,60.40
2019-02-26T14:29:01.472Z,60.20
2019-02-26T14:33:05.900Z,60.40
2019-02-26T14:37:10.381Z,61.30
2019-02-26T14:41:15.455Z,61.70
2019-02-26T14:45:20.284Z,61.40
2019-02-26T14:49:24.837Z,62.10
2019-02-26T14:53:29.352Z,62.00
2019-02-26T14:57:35.196Z,62.10
2019-02-26T15:01:39.691Z,62.40
2019-02-26T15:05:44.156Z,63.00
2019-02-26T15:09:49.028Z,63.20
2019-02-26T15:13:53.451Z,63.40
2019-02-26T15:17:58.332Z,64.90
2019-02-26T15:22:02.755Z,64.80
2019-02-26T15:26:08.103Z,65.50
2019-02-26T15:30:13.648Z,66.30
2019-02-26T15:34:18.426Z,66.90
2019-02-26T15:38:22.979Z,67.30
2019-02-26T15:42:27.775Z,67.10
2019-02-26T15:46:32.832Z,67.00
2019-02-26T15:50:40.255Z,67.10
2019-02-26T15:54:44.498Z,66.90
2019-02-26T15:58:49.554Z,66.70
2019-02-26T16:02:54.427Z,66.90
2019-02-26T16:06:58.978Z,67.20
2019-02-26T16:11:03.513Z,67.50
2019-02-26T16:15:09.269Z,67.80
2019-02-26T16:19:13.637Z,67.80
2019-02-26T16:23:18.401Z,68.30
2019-02-26T16:27:23.510Z,68.90
2019-02-26T16:31:30.012Z,68.90
2019-02-26T16:35:34.329Z,69.30
2019-02-26T16:39:40.062Z,69.60
2019-02-26T16:43:47.242Z,69.90
2019-02-26T16:47:52.207Z,70.30
2019-02-26T16:51:56.624Z,71.10
2019-02-26T16:56:01.523Z,71.30
2019-02-26T17:00:07.564Z,71.60
2019-02-26T17:04:12.921Z,72.00
2019-02-26T17:08:30.359Z,72.10
2019-02-26T17:12:38.120Z,72.60
2019-02-26T17:16:43.100Z,73.60
2019-02-26T17:20:49.484Z,74.70
2019-02-26T17:24:57.131Z,75.00
2019-02-26T17:29:02.844Z,75.40
2019-02-26T17:33:11.360Z,76.40
2019-02-26T17:37:18.152Z,76.80
2019-02-26T17:41:22.522Z,76.80
2019-02-26T17:45:27.107Z,77.10
2019-02-26T17:49:33.633Z,78.10
2019-02-26T17:53:39.288Z,77.60
2019-02-26T17:57:46.551Z,77.90
2019-02-26T18:01:51.406Z,78.20
2019-02-26T18:05:56.148Z,78.30
2019-02-26T18:10:00.940Z,79.40
2019-02-26T18:14:07.971Z,80.10
2019-02-26T18:18:13.848Z,80.50
2019-02-26T18:22:21.757Z,80.00
2019-02-26T18:26:28.439Z,79.90
2019-02-26T18:30:34.415Z,80.90
2019-02-26T18:34:39.183Z,81.40
2019-02-26T18:38:44.071Z,82.10
2019-02-26T18:42:49.474Z,82.60
2019-02-26T18:46:54.231Z,82.20
2019-02-26T18:50:59.697Z,81.40
2019-02-26T18:55:05.720Z,82.10
2019-02-26T18:59:10.498Z,82.40
2019-02-26T19:03:14.972Z,83.70
2019-02-26T19:07:20.050Z,83.60
2019-02-26T19:11:25.664Z,84.60
2019-02-26T19:15:30.926Z,85.10
2019-02-26T19:19:36.199Z,85.30
2019-02-26T19:23:40.797Z,85.70
2019-02-26T19:27:45.907Z,86.00
2019-02-26T19:31:58.294Z,86.70
2019-02-26T19:36:03.425Z,87.40
2019-02-26T19:40:10.139Z,87.40
2019-02-26T19:44:17.645Z,87.20
2019-02-26T19:48:22.278Z,87.70
2019-02-26T19:52:26.809Z,88.40
2019-02-26T19:56:33.298Z,88.60
2019-02-26T20:00:38.094Z,89.50
2019-02-26T20:04:42.716Z,89.40
2019-02-26T20:08:56.465Z,89.70
2019-02-26T20:13:01.592Z,89.60
2019-02-26T20:17:14.287Z,90.00
2019-02-26T20:21:16.884Z,90.10
2019-02-26T20:25:22.329Z,90.10
2019-02-26T20:29:28.304Z,89.40
2019-02-26T20:33:33.044Z,89.60
2019-02-26T20:37:39.531Z,90.30
2019-02-26T20:41:44.055Z,90.60
2019-02-26T20:45:51.109Z,90.60
2019-02-26T20:49:55.295Z,91.10
2019-02-26T20:54:00.092Z,90.90
2019-02-26T20:58:04.777Z,90.40
2019-02-26T21:02:10.655Z,90.30
2019-02-26T21:06:15.618Z,90.40
2019-02-26T21:10:22.008Z,90.40
2019-02-26T21:14:31.593Z,90.70
2019-02-26T21:18:40.022Z,90.80
2019-02-26T21:22:49.612Z,90.80
2019-02-26T21:26:54.947Z,90.90
2019-02-26T21:30:59.435Z,91.30
2019-02-26T21:35:04.782Z,91.10
2019-02-26T21:39:11.104Z,91.20
2019-02-26T21:43:17.189Z,91.40
2019-02-26T21:47:21.612Z,91.70
2019-02-26T21:51:27.980Z,91.90
2019-02-26T21:55:43.963Z,91.70
2019-02-26T21:59:39.883Z,91.80
2019-02-26T22:03:44.446Z,92.00
2019-02-26T22:07:52.140Z,91.90
2019-02-26T22:11:55.714Z,92.10
2019-02-26T22:16:02.389Z,92.10
2019-02-26T22:20:09.275Z,92.40
2019-02-26T22:24:14.300Z,92.30
2019-02-26T22:28:18.864Z,92.30
2019-02-26T22:32:23.976Z,92.60
2019-02-26T22:36:30.780Z,92.90
2019-02-26T22:40:34.499Z,93.10
2019-02-26T22:44:39.464Z,92.60
2019-02-26T22:48:44.569Z,92.10
2019-02-26T22:52:50.148Z,92.40
2019-02-26T22:56:56.851Z,92.70
2019-02-26T23:01:16.335Z,92.60
2019-02-26T23:05:29.129Z,92.50
2019-02-26T23:09:34.607Z,92.40
2019-02-26T23:13:39.765Z,92.70
2019-02-26T23:17:44.272Z,92.90
2019-02-26T23:21:49.975Z,93.00
2019-02-26T23:25:55.202Z,93.30
2019-02-26T23:29:59.692Z,93.40
2019-02-26T23:34:05.468Z,93.60
2019-02-26T23:38:09.904Z,93.80
2019-02-26T23:42:14.874Z,93.60
2019-02-26T23:46:19.318Z,93.60
2019-02-26T23:50:24.758Z,93.40
2019-02-26T23:54:29.519Z,93.60
2019-02-26T23:58:34.195Z,93.90
